Time;durP1;ratioP1;P1;durP2;ratioP2;P2;SDS_P1;SDS_P2;PMS_P1;PMS_P2;Temp;Humidity;BMP_temperature;BMP_pressure;BME280_temperature;BME280_humidity;BME280_pressure;Samples;Min_cycle;Max_cycle;Signal;HPM_P1;HPM_P2
2024/02/25 05:02:30;;;;;;;1.10;1.00;;;0.60;97.30;;;;;;5117291;23;20545;-84
2024/02/25 05:05:02;;;;;;;1.00;0.90;;;0.80;97.30;;;;;;4950902;28;20446;-85
2024/02/25 05:07:52;;;;;;;1.17;1.10;;;0.80;97.30;;;;;;4954022;28;20932;-84
2024/02/25 05:10:21;;;;;;;1.10;1.00;;;0.80;97.30;;;;;;4952478;28;20444;-84
2024/02/25 05:13:21;;;;;;;1.20;1.10;;;0.90;97.30;;;;;;4948220;28;20732;-84
2024/02/25 05:15:49;;;;;;;1.20;1.07;;;0.80;97.30;;;;;;4935154;29;20608;-85
2024/02/25 05:18:21;;;;;;;1.23;1.13;;;0.80;97.30;;;;;;4937548;29;20442;-84
2024/02/25 05:20:52;;;;;;;1.10;1.00;;;0.80;97.30;;;;;;4934376;29;20486;-85
2024/02/25 05:23:41;;;;;;;1.10;1.00;;;0.80;97.30;;;;;;4935047;29;20439;-84
2024/02/25 05:26:22;;;;;;;1.00;0.90;;;0.80;97.30;;;;;;4934241;29;20475;-84
2024/02/25 05:28:51;;;;;;;1.10;1.00;;;0.90;97.30;;;;;;4935063;29;20527;-84
2024/02/25 05:31:22;;;;;;;1.33;1.23;;;0.90;97.30;;;;;;4934825;29;20503;-85
2024/02/25 05:33:51;;;;;;;5.67;1.87;;;0.90;97.30;;;;;;4932574;29;20456;-85
2024/02/25 05:36:22;;;;;;;1.30;1.20;;;0.90;97.30;;;;;;4930832;29;20693;-84
2024/02/25 05:38:51;;;;;;;1.40;1.30;;;0.90;97.30;;;;;;4954969;28;20861;-85
2024/02/25 05:41:22;;;;;;;1.10;1.00;;;0.90;97.30;;;;;;4934710;29;20452;-84
2024/02/25 05:43:52;;;;;;;1.67;1.37;;;0.80;97.30;;;;;;4939451;29;20491;-85
2024/02/25 05:46:22;;;;;;;1.00;0.90;;;0.80;97.30;;;;;;4931445;29;20512;-83
2024/02/25 05:48:51;;;;;;;0.97;0.87;;;0.70;97.30;;;;;;4933836;29;20455;-84
2024/02/25 05:51:22;;;;;;;1.00;0.90;;;0.70;97.30;;;;;;4934058;29;20447;-84
2024/02/25 05:54:00;;;;;;;1.00;0.90;;;0.70;97.30;;;;;;4933844;29;20471;-85
2024/02/25 05:59:11;;;;;;;5.80;1.83;;;0.70;97.30;;;;;;4919859;29;20597;-84
2024/02/25 06:01:38;;;;;;;1.00;0.90;;;0.80;97.30;;;;;;4928692;29;20453;-84
2024/02/25 06:04:04;;;;;;;1.10;1.00;;;0.90;97.30;;;;;;4920525;29;20191;-84
2024/02/25 06:06:29;;;;;;;1.10;1.00;;;0.90;97.30;;;;;;4929146;29;20424;-84
2024/02/25 06:08:55;;;;;;;1.20;1.10;;;1.00;97.30;;;;;;4928580;29;20204;-84
2024/02/25 06:11:21;;;;;;;1.00;0.90;;;1.00;97.30;;;;;;4914133;29;20180;-84
2024/02/25 06:13:46;;;;;;;1.10;1.00;;;1.00;97.30;;;;;;4912639;29;20252;-84
2024/02/25 06:16:11;;;;;;;1.73;1.63;;;1.00;97.30;;;;;;4912939;29;20195;-84
2024/02/25 06:18:40;;;;;;;1.33;1.23;;;1.00;97.30;;;;;;4912581;29;20247;-84
2024/02/25 06:21:05;;;;;;;1.57;1.47;;;1.00;97.30;;;;;;4914047;29;20185;-84
2024/02/25 06:23:31;;;;;;;1.00;0.90;;;1.00;97.30;;;;;;4914508;29;20504;-84
2024/02/25 06:25:57;;;;;;;1.33;1.23;;;1.00;97.30;;;;;;4914054;29;20220;-84
2024/02/25 06:28:23;;;;;;;1.53;1.23;;;1.00;97.30;;;;;;4913984;29;20291;-84
2024/02/25 06:30:49;;;;;;;1.00;0.90;;;1.10;97.30;;;;;;4913672;29;20496;-84
2024/02/25 06:33:15;;;;;;;1.00;0.90;;;1.10;97.30;;;;;;4915760;29;20935;-84
2024/02/25 06:35:41;;;;;;;1.00;0.90;;;1.10;97.30;;;;;;4921322;29;20442;-84
2024/02/25 06:38:06;;;;;;;1.00;0.90;;;1.10;97.30;;;;;;4938995;29;20448;-84
2024/02/25 06:40:32;;;;;;;1.00;0.90;;;1.20;97.30;;;;;;4933077;29;20180;-84
2024/02/25 06:42:58;;;;;;;1.00;0.90;;;1.20;97.30;;;;;;4916368;29;20569;-84
2024/02/25 06:45:23;;;;;;;1.00;0.90;;;1.10;97.30;;;;;;4932720;29;20363;-84
2024/02/25 06:47:49;;;;;;;0.90;0.80;;;1.10;97.30;;;;;;4917647;29;20444;-84
2024/02/25 06:50:15;;;;;;;1.73;1.63;;;1.10;97.30;;;;;;4932593;29;20775;-84
2024/02/25 06:52:40;;;;;;;1.20;1.10;;;1.00;97.30;;;;;;4916357;29;20564;-84
2024/02/25 06:55:09;;;;;;;0.90;0.80;;;1.00;97.30;;;;;;4932192;29;20294;-84
2024/02/25 06:57:34;;;;;;;1.00;0.90;;;0.90;97.30;;;;;;4943922;28;20234;-83
2024/02/25 07:00:03;;;;;;;1.10;1.00;;;0.90;97.30;;;;;;4924544;29;20436;-84
2024/02/25 07:02:29;;;;;;;1.10;1.00;;;0.90;97.30;;;;;;4931508;29;20183;-84
2024/02/25 07:04:55;;;;;;;1.00;0.90;;;0.90;97.30;;;;;;4922288;29;20428;-84
2024/02/25 07:07:20;;;;;;;1.87;1.80;;;1.00;97.30;;;;;;4931555;29;20578;-84
2024/02/25 07:09:46;;;;;;;1.10;1.00;;;1.10;97.30;;;;;;4924001;29;20428;-84
2024/02/25 07:12:12;;;;;;;1.30;1.20;;;1.10;97.30;;;;;;4931668;29;20243;-84
2024/02/25 07:14:38;;;;;;;1.00;0.90;;;1.10;97.30;;;;;;4920392;29;20259;-84
2024/02/25 07:17:03;;;;;;;1.00;0.90;;;1.10;97.30;;;;;;4917378;29;20850;-84
2024/02/25 07:19:29;;;;;;;1.00;0.90;;;1.10;97.30;;;;;;4917529;29;20177;-84
2024/02/25 07:21:54;;;;;;;1.23;1.13;;;1.20;97.30;;;;;;4931614;29;20214;-84
2024/02/25 07:24:20;;;;;;;1.10;1.00;;;1.20;97.30;;;;;;4917402;29;20232;-84
2024/02/25 07:26:45;;;;;;;1.10;1.00;;;1.30;97.30;;;;;;4931617;29;20184;-84
2024/02/25 07:29:11;;;;;;;1.20;1.10;;;1.30;97.30;;;;;;4931798;29;20196;-82
2024/02/25 07:31:37;;;;;;;1.00;0.90;;;1.30;97.30;;;;;;4917192;29;20212;-83
2024/02/25 07:34:02;;;;;;;1.33;1.23;;;1.40;97.30;;;;;;4917785;29;20228;-85
2024/02/25 07:36:27;;;;;;;1.07;0.97;;;1.40;97.30;;;;;;4933268;29;20261;-85
2024/02/25 07:38:53;;;;;;;9.40;1.20;;;1.40;97.30;;;;;;4953406;29;20201;-85
2024/02/25 07:41:19;;;;;;;1.10;1.00;;;1.50;97.30;;;;;;4951019;29;20229;-84
2024/02/25 07:43:44;;;;;;;1.10;1.00;;;1.60;97.30;;;;;;4940840;29;20425;-84
2024/02/25 07:46:10;;;;;;;1.00;0.90;;;1.70;97.30;;;;;;4934137;29;20192;-84
2024/02/25 07:48:41;;;;;;;5.70;1.60;;;1.80;97.30;;;;;;4931561;29;20729;-84
2024/02/25 07:51:06;;;;;;;1.20;1.10;;;1.90;97.30;;;;;;4918053;29;20192;-84
2024/02/25 07:53:32;;;;;;;1.53;1.43;;;2.20;97.30;;;;;;4931708;29;20535;-84
2024/02/25 07:55:57;;;;;;;1.50;1.40;;;2.40;97.30;;;;;;4915408;29;20292;-84
2024/02/25 07:58:23;;;;;;;1.30;1.20;;;2.60;97.30;;;;;;4931059;29;20232;-84
2024/02/25 08:00:49;;;;;;;1.00;0.90;;;2.90;97.30;;;;;;4930898;29;20669;-84
2024/02/25 08:03:14;;;;;;;1.60;1.50;;;3.00;97.30;;;;;;4916540;29;20181;-84
2024/02/25 08:05:40;;;;;;;1.60;1.50;;;3.30;97.30;;;;;;4930876;29;20191;-84
2024/02/25 08:08:06;;;;;;;1.43;1.30;;;3.50;97.30;;;;;;4915225;29;20196;-84
2024/02/25 08:10:32;;;;;;;1.00;0.90;;;3.80;97.30;;;;;;4935334;29;20800;-84
2024/02/25 08:12:59;;;;;;;1.03;0.93;;;4.00;97.30;;;;;;4916196;29;20184;-84
2024/02/25 08:15:25;;;;;;;1.10;1.00;;;4.20;97.30;;;;;;4929530;29;20187;-84
2024/02/25 08:17:50;;;;;;;1.87;1.77;;;4.50;97.30;;;;;;4929399;28;20436;-84
2024/02/25 08:20:16;;;;;;;1.10;1.00;;;4.90;97.30;;;;;;4928767;29;20596;-84
2024/02/25 08:22:41;;;;;;;1.47;1.47;;;5.10;97.30;;;;;;4929110;29;20184;-84
2024/02/25 08:25:09;;;;;;;1.73;1.70;;;5.40;97.30;;;;;;4928865;29;20180;-84
2024/02/25 08:27:34;;;;;;;1.20;1.10;;;5.60;97.30;;;;;;4942990;29;20239;-84
2024/02/25 08:30:00;;;;;;;1.00;0.90;;;5.90;97.30;;;;;;4947932;29;20425;-84
2024/02/25 08:32:26;;;;;;;1.53;1.43;;;6.10;97.30;;;;;;4935020;29;20433;-85
2024/02/25 08:34:54;;;;;;;3.43;3.23;;;6.30;97.30;;;;;;4949406;29;20299;-85
2024/02/25 08:37:27;;;;;;;1.17;1.00;;;6.50;97.30;;;;;;4953884;28;20722;-85
2024/02/25 08:39:53;;;;;;;1.10;1.00;;;6.70;97.30;;;;;;4952247;29;20435;-85
2024/02/25 08:42:20;;;;;;;1.30;1.20;;;6.80;97.30;;;;;;4947241;29;20429;-85
2024/02/25 08:44:46;;;;;;;0.97;0.87;;;7.00;97.30;;;;;;4915965;29;20712;-84
2024/02/25 08:47:11;;;;;;;4.40;1.77;;;7.20;97.30;;;;;;4915651;29;20441;-84
2024/02/25 08:49:37;;;;;;;3.43;2.00;;;7.30;97.30;;;;;;4916674;29;20196;-79
2024/02/25 08:52:04;;;;;;;1.33;1.03;;;7.60;97.30;;;;;;4915293;29;20581;-84
2024/02/25 08:54:30;;;;;;;1.03;1.00;;;7.80;97.30;;;;;;4928668;29;20468;-84
2024/02/25 08:56:55;;;;;;;1.03;0.93;;;7.90;97.30;;;;;;4928591;29;20432;-84
2024/02/25 08:59:21;;;;;;;1.20;1.10;;;8.00;97.30;;;;;;4915630;29;20721;-85
2024/02/25 09:01:47;;;;;;;1.13;0.97;;;8.20;97.30;;;;;;4942495;28;20204;-84
2024/02/25 09:04:13;;;;;;;1.43;1.33;;;8.40;97.30;;;;;;4941312;29;20208;-85
2024/02/25 09:06:39;;;;;;;1.10;1.00;;;8.40;97.30;;;;;;4938220;29;20414;-84
2024/02/25 09:09:05;;;;;;;1.50;1.40;;;8.40;97.30;;;;;;4939286;29;20188;-84
2024/02/25 09:11:31;;;;;;;1.00;0.90;;;8.60;97.30;;;;;;4927173;29;20424;-84
2024/02/25 09:13:56;;;;;;;1.00;0.90;;;8.70;97.30;;;;;;4939840;29;20471;-84
2024/02/25 09:16:22;;;;;;;1.13;1.03;;;8.90;97.30;;;;;;4932236;29;20189;-82
2024/02/25 09:18:48;;;;;;;1.43;1.33;;;9.00;97.10;;;;;;4924761;29;20204;-84
2024/02/25 09:21:14;;;;;;;1.37;1.27;;;9.10;97.10;;;;;;4931463;29;20198;-85
2024/02/25 09:23:40;;;;;;;0.90;0.90;;;9.10;96.90;;;;;;4941829;29;20499;-84
2024/02/25 09:26:07;;;;;;;1.33;1.27;;;9.20;96.60;;;;;;4937772;29;20465;-84
2024/02/25 09:28:33;;;;;;;4.00;2.33;;;9.20;95.90;;;;;;4923187;29;20207;-84
2024/02/25 09:30:59;;;;;;;1.40;1.30;;;9.30;95.70;;;;;;4923054;29;20425;-85
2024/02/25 09:33:26;;;;;;;1.10;1.00;;;9.50;94.90;;;;;;4935805;29;20871;-85
2024/02/25 09:35:51;;;;;;;2.20;1.27;;;9.60;95.40;;;;;;4929194;29;20188;-82
2024/02/25 09:38:17;;;;;;;1.13;1.03;;;9.80;94.80;;;;;;4929732;29;20863;-82
2024/02/25 09:40:43;;;;;;;1.23;1.13;;;10.00;94.60;;;;;;4929082;29;20186;-84
2024/02/25 09:43:12;;;;;;;1.10;1.00;;;9.90;93.40;;;;;;4913630;29;20275;-84
2024/02/25 09:45:41;;;;;;;1.40;1.27;;;10.00;93.50;;;;;;4914541;29;20424;-82
2024/02/25 09:48:10;;;;;;;2.60;1.73;;;10.00;93.40;;;;;;4929000;29;20440;-82
2024/02/25 09:50:37;;;;;;;1.63;1.10;;;10.10;93.20;;;;;;4914824;29;20420;-84
2024/02/25 09:53:03;;;;;;;1.33;1.23;;;10.20;93.40;;;;;;4928743;29;20511;-82
2024/02/25 09:55:29;;;;;;;2.13;1.97;;;10.20;93.10;;;;;;4928790;28;20433;-84
2024/02/25 09:57:54;;;;;;;6.47;2.40;;;10.20;92.90;;;;;;4913949;29;21224;-84
2024/02/25 10:00:20;;;;;;;1.40;1.30;;;10.20;92.90;;;;;;4928671;29;20176;-82
2024/02/25 10:02:45;;;;;;;2.10;1.10;;;10.30;92.80;;;;;;4914233;29;20726;-85
2024/02/25 10:05:15;;;;;;;1.30;1.20;;;10.40;93.10;;;;;;4928586;29;20293;-84
2024/02/25 10:07:40;;;;;;;1.13;1.03;;;10.60;92.40;;;;;;4928141;28;20208;-82
2024/02/25 10:10:06;;;;;;;1.63;1.53;;;10.70;92.10;;;;;;4913974;29;20495;-82
2024/02/25 10:12:33;;;;;;;4.10;1.40;;;10.70;92.00;;;;;;4928898;29;20193;-84
2024/02/25 10:14:58;;;;;;;1.57;1.47;;;10.80;91.90;;;;;;4913933;29;20564;-84
2024/02/25 10:17:24;;;;;;;1.27;1.20;;;10.80;91.00;;;;;;4915570;29;21054;-85
2024/02/25 10:19:56;;;;;;;1.73;1.20;;;11.00;91.60;;;;;;4928678;29;20241;-82
2024/02/25 10:22:25;;;;;;;3.47;2.13;;;11.10;91.30;;;;;;4906951;29;20843;-81
2024/02/25 10:25:04;;;;;;;4.17;2.57;;;11.10;90.10;;;;;;4928459;29;20923;-82
2024/02/25 10:27:29;;;;;;;1.50;1.40;;;11.00;90.60;;;;;;4928604;28;20487;-85
2024/02/25 10:29:56;;;;;;;2.73;2.57;;;11.10;90.40;;;;;;4913617;29;20839;-85
2024/02/25 10:32:26;;;;;;;3.57;1.77;;;11.20;91.10;;;;;;4906853;29;20192;-84
2024/02/25 10:34:56;;;;;;;1.90;1.80;;;11.20;90.40;;;;;;4933622;29;20612;-82
2024/02/25 10:37:23;;;;;;;1.10;1.00;;;11.30;90.30;;;;;;4929919;29;20452;-84
2024/02/25 10:39:54;;;;;;;18.83;4.37;;;11.30;89.50;;;;;;4927178;29;20974;-84
2024/02/25 10:42:28;;;;;;;4.97;2.93;;;11.40;89.70;;;;;;4913792;29;20507;-85
2024/02/25 10:44:59;;;;;;;1.27;1.17;;;11.30;89.80;;;;;;4913733;29;20435;-82
2024/02/25 10:47:26;;;;;;;5.20;1.93;;;11.30;90.00;;;;;;4928340;29;20476;-82
2024/02/25 10:49:53;;;;;;;6.57;2.40;;;11.40;90.40;;;;;;4913790;29;20424;-82
2024/02/25 10:52:20;;;;;;;3.10;2.30;;;11.50;90.00;;;;;;4912569;29;20420;-85
2024/02/25 10:54:49;;;;;;;3.80;1.60;;;11.60;89.80;;;;;;4913909;29;20551;-82
2024/02/25 10:57:16;;;;;;;1.43;1.33;;;11.70;89.40;;;;;;4928431;29;20837;-84
2024/02/25 10:59:42;;;;;;;4.73;3.10;;;11.80;89.70;;;;;;4928379;29;20425;-82
2024/02/25 11:02:10;;;;;;;2.40;2.20;;;11.90;89.50;;;;;;4914492;29;20939;-82
2024/02/25 11:04:37;;;;;;;1.30;1.13;;;11.80;87.70;;;;;;4928396;29;20531;-84
2024/02/25 11:07:07;;;;;;;1.20;1.10;;;11.80;87.60;;;;;;4925635;23;22472;-67
2024/02/25 11:09:32;;;;;;;1.83;1.07;;;11.90;88.30;;;;;;4948497;28;20997;-67
2024/02/25 11:12:26;;;;;;;1.60;1.50;;;12.10;87.20;;;;;;4934890;28;20608;-68
2024/02/25 11:15:01;;;;;;;8.67;4.67;;;12.20;87.50;;;;;;4927192;29;20227;-68
2024/02/25 11:17:32;;;;;;;2.03;1.90;;;12.40;87.40;;;;;;4925344;29;20923;-75
2024/02/25 11:20:02;;;;;;;1.33;1.23;;;12.70;87.50;;;;;;4931838;29;20432;-71
2024/02/25 11:22:44;;;;;;;2.07;1.23;;;12.40;86.20;;;;;;4928994;29;20465;-68
2024/02/25 11:25:28;;;;;;;1.57;1.47;;;12.40;88.00;;;;;;4939963;29;20423;-68
2024/02/25 11:27:58;;;;;;;3.20;1.60;;;12.50;87.00;;;;;;4936442;29;20424;-70
2024/02/25 11:30:44;;;;;;;1.43;1.10;;;12.50;86.70;;;;;;4932785;29;20458;-65
2024/02/25 11:33:21;;;;;;;2.27;2.07;;;12.60;86.70;;;;;;4941910;29;20419;-68
2024/02/25 11:35:49;;;;;;;1.30;1.20;;;12.70;85.40;;;;;;4935571;29;20933;-68
2024/02/25 11:38:21;;;;;;;1.47;1.37;;;12.80;85.20;;;;;;4933937;29;20676;-68
2024/02/25 11:40:48;;;;;;;1.20;1.10;;;12.70;82.10;;;;;;4933736;29;20435;-68
2024/02/25 11:43:13;;;;;;;1.87;1.50;;;12.60;83.30;;;;;;4933887;29;20729;-67
2024/02/25 11:45:39;;;;;;;33.73;2.70;;;12.60;83.30;;;;;;4932346;29;20432;-69
2024/02/25 11:48:04;;;;;;;1.60;1.50;;;12.70;83.70;;;;;;4932413;29;20198;-68
2024/02/25 11:50:30;;;;;;;1.97;1.33;;;12.50;82.30;;;;;;4933488;29;20212;-69
2024/02/25 11:53:02;;;;;;;2.60;1.33;;;12.40;82.90;;;;;;4936439;29;20180;-70
2024/02/25 11:55:28;;;;;;;1.33;1.23;;;12.50;84.00;;;;;;4927571;29;20215;-69
2024/02/25 11:57:54;;;;;;;1.27;1.17;;;12.60;83.00;;;;;;4935476;29;21129;-69
2024/02/25 12:00:23;;;;;;;2.50;1.73;;;12.60;82.20;;;;;;4930117;29;20184;-70
2024/02/25 12:02:49;;;;;;;1.03;0.93;;;12.60;82.10;;;;;;4931746;29;20427;-71
2024/02/25 12:05:15;;;;;;;1.73;1.30;;;12.80;81.60;;;;;;4932562;29;20442;-69
2024/02/25 12:07:43;;;;;;;9.93;1.77;;;12.90;81.30;;;;;;4933123;29;20239;-68
2024/02/25 12:10:10;;;;;;;1.33;1.33;;;13.00;81.50;;;;;;4931668;29;20447;-70
2024/02/25 12:15:04;;;;;;;2.53;1.50;;;12.90;82.20;;;;;;4950696;28;20497;-61
2024/02/25 12:17:30;;;;;;;2.30;2.10;;;13.00;82.40;;;;;;4950805;28;20452;-62
2024/02/25 12:19:56;;;;;;;0.90;0.80;;;13.20;82.00;;;;;;4951355;28;20514;-61
2024/02/25 12:22:26;;;;;;;1.40;1.37;;;13.10;82.00;;;;;;4933888;28;20546;-60
2024/02/25 12:24:52;;;;;;;1.40;1.30;;;13.10;82.50;;;;;;4932120;29;20184;-61
2024/02/25 12:27:22;;;;;;;1.40;1.20;;;13.10;81.80;;;;;;4931655;29;20432;-61
2024/02/25 12:29:50;;;;;;;1.53;1.30;;;13.50;82.50;;;;;;4931321;29;20423;-62
2024/02/25 12:32:20;;;;;;;1.50;1.40;;;13.60;80.30;;;;;;4931351;29;20450;-61
2024/02/25 12:34:47;;;;;;;3.53;1.87;;;13.60;81.30;;;;;;4933016;29;20472;-60
2024/02/25 12:37:16;;;;;;;2.17;2.03;;;13.70;81.70;;;;;;4934905;29;20442;-61
2024/02/25 12:39:42;;;;;;;1.10;1.00;;;13.70;80.60;;;;;;4933290;29;20475;-61
2024/02/25 12:42:09;;;;;;;3.80;2.43;;;13.80;80.00;;;;;;4939450;29;20451;-60
2024/02/25 12:44:38;;;;;;;1.30;1.20;;;13.70;79.80;;;;;;4931723;29;21075;-60
2024/02/25 12:47:04;;;;;;;1.40;1.30;;;14.30;81.50;;;;;;4931446;29;20514;-61
2024/02/25 12:49:29;;;;;;;2.67;1.23;;;14.80;78.30;;;;;;4932613;29;21047;-61
2024/02/25 12:51:56;;;;;;;1.63;1.50;;;14.80;76.70;;;;;;4931426;29;20739;-61
2024/02/25 12:54:21;;;;;;;1.10;1.00;;;14.80;74.90;;;;;;4931227;29;20208;-61
2024/02/25 12:56:47;;;;;;;1.20;1.10;;;14.80;73.40;;;;;;4932764;29;20779;-61
2024/02/25 12:59:14;;;;;;;1.10;1.00;;;14.30;72.80;;;;;;4933073;29;20282;-60
2024/02/25 13:01:43;;;;;;;1.00;0.90;;;14.30;73.10;;;;;;4931041;29;20212;-61
2024/02/25 13:04:11;;;;;;;0.90;0.80;;;14.20;73.80;;;;;;4932559;29;20503;-62
2024/02/25 13:06:37;;;;;;;1.77;1.63;;;13.70;73.40;;;;;;4938973;29;20439;-62
2024/02/25 13:09:05;;;;;;;1.00;0.90;;;13.50;74.60;;;;;;4933239;29;20499;-62
2024/02/25 13:11:31;;;;;;;5.20;0.90;;;13.10;75.60;;;;;;4935748;29;20451;-62
2024/02/25 13:13:57;;;;;;;0.60;0.60;;;12.90;76.20;;;;;;4926878;29;20544;-62
2024/02/25 13:16:22;;;;;;;1.30;1.20;;;12.80;77.10;;;;;;4926390;29;20503;-63
2024/02/25 13:18:48;;;;;;;1.20;1.10;;;12.60;76.50;;;;;;4938663;29;20180;-62
2024/02/25 13:21:13;;;;;;;1.73;1.60;;;12.50;77.10;;;;;;4936027;28;20204;-62
2024/02/25 13:23:39;;;;;;;1.30;1.00;;;12.40;78.30;;;;;;4932035;29;20695;-62
2024/02/25 13:26:08;;;;;;;1.20;1.10;;;12.50;78.60;;;;;;4931797;28;20195;-62
2024/02/25 13:28:34;;;;;;;1.43;1.37;;;12.60;78.30;;;;;;4931564;29;20281;-62
2024/02/25 13:31:00;;;;;;;1.20;1.10;;;12.60;77.90;;;;;;4927684;29;21055;-61
2024/02/25 13:33:26;;;;;;;2.30;1.97;;;12.50;78.10;;;;;;4930746;29;20522;-62
2024/02/25 13:35:53;;;;;;;1.47;1.37;;;12.40;78.70;;;;;;4930674;29;20192;-62
2024/02/25 13:38:18;;;;;;;1.17;1.07;;;12.30;79.40;;;;;;4935755;29;20428;-61
2024/02/25 13:40:44;;;;;;;2.57;2.30;;;12.10;79.00;;;;;;4941764;28;20512;-62
2024/02/25 13:43:10;;;;;;;3.03;1.73;;;12.00;79.20;;;;;;4935948;29;20207;-62
2024/02/25 13:45:54;;;;;;;1.37;1.27;;;12.00;79.90;;;;;;4932654;29;20489;-61
2024/02/25 13:48:20;;;;;;;1.60;1.50;;;12.10;80.40;;;;;;4931143;29;20185;-62
2024/02/25 13:50:46;;;;;;;1.93;1.83;;;12.20;79.80;;;;;;4931353;29;20447;-62
2024/02/25 13:53:12;;;;;;;1.97;1.87;;;12.20;80.30;;;;;;4938243;29;20493;-61
2024/02/25 13:55:39;;;;;;;2.70;1.67;;;12.40;80.10;;;;;;4937703;29;20306;-61
2024/02/25 13:58:05;;;;;;;0.90;0.80;;;12.50;80.30;;;;;;4939619;29;20419;-62
2024/02/25 14:00:30;;;;;;;1.00;0.90;;;12.60;80.10;;;;;;4939432;28;20506;-62
2024/02/25 14:02:56;;;;;;;1.10;1.00;;;13.00;79.80;;;;;;4938141;29;20571;-62
2024/02/25 14:05:21;;;;;;;1.10;1.00;;;13.20;79.20;;;;;;4948446;29;20191;-62
2024/02/25 14:07:47;;;;;;;1.10;1.00;;;13.20;78.00;;;;;;4942718;28;20274;-62
2024/02/25 14:10:15;;;;;;;3.90;1.30;;;12.90;78.30;;;;;;4942012;28;20191;-62
2024/02/25 14:12:45;;;;;;;0.97;0.90;;;12.70;78.90;;;;;;4942850;29;20423;-62
2024/02/25 14:15:11;;;;;;;1.20;1.10;;;12.60;79.30;;;;;;4934732;28;20482;-62
2024/02/25 14:17:37;;;;;;;8.67;2.37;;;12.40;80.00;;;;;;4937740;29;20424;-62
2024/02/25 14:20:04;;;;;;;3.10;2.03;;;12.30;80.50;;;;;;4938280;29;20643;-62
2024/02/25 14:22:31;;;;;;;1.47;1.13;;;12.20;80.40;;;;;;4932313;28;20700;-62
2024/02/25 14:24:56;;;;;;;1.30;1.20;;;12.20;81.10;;;;;;4911371;29;20436;-62
2024/02/25 14:27:22;;;;;;;1.90;1.83;;;12.30;81.40;;;;;;4937342;29;20435;-62
2024/02/25 14:29:48;;;;;;;0.90;0.90;;;12.30;81.60;;;;;;4949084;28;20191;-62
2024/02/25 14:32:14;;;;;;;1.03;0.80;;;12.20;80.10;;;;;;4928115;28;20204;-62
2024/02/25 14:34:39;;;;;;;0.90;0.80;;;12.10;80.70;;;;;;4916292;29;20480;-62
2024/02/25 14:37:05;;;;;;;2.00;1.37;;;12.10;81.10;;;;;;4927809;29;20653;-62
2024/02/25 14:39:31;;;;;;;1.07;1.00;;;12.00;81.70;;;;;;4921939;29;20266;-61
2024/02/25 14:41:56;;;;;;;0.90;0.80;;;12.00;82.00;;;;;;4925735;29;20212;-62
2024/02/25 14:44:22;;;;;;;1.03;0.93;;;12.00;82.00;;;;;;4919483;29;20519;-61
2024/02/25 14:46:48;;;;;;;1.53;1.03;;;11.90;82.70;;;;;;4928758;29;20604;-61
2024/02/25 14:49:13;;;;;;;1.10;1.00;;;11.90;82.30;;;;;;4929171;29;20237;-62
2024/02/25 14:51:39;;;;;;;1.10;1.00;;;11.80;82.10;;;;;;4944052;29;20584;-61
2024/02/25 14:54:04;;;;;;;1.00;0.90;;;11.70;82.50;;;;;;4941438;28;20207;-61
2024/02/25 14:56:34;;;;;;;1.30;0.97;;;11.90;82.60;;;;;;4939767;29;20243;-61
2024/02/25 14:59:00;;;;;;;4.00;1.70;;;12.50;82.20;;;;;;4939565;28;20184;-61
2024/02/25 15:01:27;;;;;;;1.97;1.10;;;12.60;81.00;;;;;;4938229;29;20494;-61
2024/02/25 15:03:53;;;;;;;0.97;0.87;;;12.60;81.20;;;;;;4935290;29;20464;-61
2024/02/25 15:06:20;;;;;;;0.93;0.83;;;12.80;80.70;;;;;;4934754;29;20955;-61
2024/02/25 15:08:46;;;;;;;1.10;1.00;;;13.70;79.70;;;;;;4945335;28;20435;-61
2024/02/25 15:11:12;;;;;;;1.10;1.00;;;13.70;79.00;;;;;;4951845;28;20903;-61
2024/02/25 15:13:37;;;;;;;1.47;1.17;;;13.40;78.90;;;;;;4947431;29;20241;-61
2024/02/25 15:16:04;;;;;;;1.20;1.10;;;13.50;79.20;;;;;;4933654;29;20184;-62
2024/02/25 15:18:29;;;;;;;0.90;0.80;;;13.80;78.50;;;;;;4936264;29;20675;-61
2024/02/25 15:20:55;;;;;;;1.20;1.10;;;13.50;78.00;;;;;;4937091;29;20435;-61
2024/02/25 15:23:20;;;;;;;1.47;1.37;;;14.00;78.00;;;;;;4932430;29;20266;-61
2024/02/25 15:25:46;;;;;;;1.27;1.17;;;14.80;76.70;;;;;;4943896;29;20187;-62
2024/02/25 15:28:12;;;;;;;1.00;0.90;;;14.50;75.80;;;;;;4936627;29;20671;-61
2024/02/25 15:30:39;;;;;;;1.73;1.63;;;13.80;77.90;;;;;;4935939;29;20207;-62
2024/02/25 15:33:05;;;;;;;0.97;0.87;;;13.10;79.80;;;;;;4936384;29;20625;-62
2024/02/25 15:35:31;;;;;;;0.90;0.90;;;12.50;81.70;;;;;;4935219;29;20459;-62
2024/02/25 15:37:56;;;;;;;2.90;1.20;;;12.20;82.70;;;;;;4942996;28;20438;-61
2024/02/25 15:40:22;;;;;;;0.87;0.77;;;11.90;83.30;;;;;;4935942;29;20183;-61
2024/02/25 15:42:48;;;;;;;1.00;0.90;;;11.70;84.00;;;;;;4938917;29;20183;-61
2024/02/25 15:45:14;;;;;;;0.80;0.80;;;11.50;84.70;;;;;;4937142;29;20426;-62
2024/02/25 15:47:41;;;;;;;1.20;1.10;;;11.30;85.10;;;;;;4943765;29;20175;-62
2024/02/25 15:50:08;;;;;;;1.00;0.90;;;11.10;85.80;;;;;;4935734;29;20435;-62
2024/02/25 15:52:33;;;;;;;0.90;0.80;;;11.10;86.20;;;;;;4935461;29;20428;-62
2024/02/25 15:54:59;;;;;;;1.10;1.00;;;11.00;86.50;;;;;;4932285;29;20546;-62
2024/02/25 15:57:25;;;;;;;1.30;1.20;;;10.90;86.80;;;;;;4936059;29;20187;-61
2024/02/25 15:59:51;;;;;;;0.90;0.80;;;10.80;87.20;;;;;;4944786;29;20226;-61
2024/02/25 16:02:19;;;;;;;1.60;1.50;;;11.90;86.00;;;;;;4947814;29;20195;-61
2024/02/25 16:04:44;;;;;;;1.23;1.13;;;13.20;83.20;;;;;;4936197;28;20175;-62
2024/02/25 16:07:10;;;;;;;2.70;1.00;;;14.50;80.70;;;;;;4932994;29;20939;-61
2024/02/25 16:09:35;;;;;;;1.37;1.27;;;15.50;78.30;;;;;;4937632;29;20188;-61
2024/02/25 16:12:02;;;;;;;1.77;1.67;;;15.90;76.90;;;;;;4936795;29;20211;-61
2024/02/25 16:14:27;;;;;;;2.40;1.93;;;16.20;76.30;;;;;;4942856;28;20223;-62
2024/02/25 16:16:54;;;;;;;0.93;0.83;;;16.00;75.80;;;;;;4939650;29;20415;-62
2024/02/25 16:19:20;;;;;;;1.37;1.27;;;15.40;76.70;;;;;;4939126;29;20179;-62
2024/02/25 16:21:46;;;;;;;1.27;1.17;;;14.20;78.60;;;;;;4924705;29;20584;-62
2024/02/25 16:24:11;;;;;;;1.20;1.10;;;13.10;80.80;;;;;;4912726;29;21182;-63
2024/02/25 16:26:39;;;;;;;1.20;1.10;;;12.20;82.70;;;;;;4922339;29;20195;-62
2024/02/25 16:29:05;;;;;;;2.13;1.40;;;11.60;84.30;;;;;;4928111;29;20184;-62
2024/02/25 16:31:32;;;;;;;1.27;1.17;;;11.10;85.50;;;;;;4926996;29;20452;-62
2024/02/25 16:33:57;;;;;;;1.30;1.20;;;10.80;86.40;;;;;;4930516;29;20227;-61
2024/02/25 16:36:23;;;;;;;1.23;1.23;;;10.50;87.10;;;;;;4929826;29;20454;-61
2024/02/25 16:38:48;;;;;;;1.20;1.10;;;10.30;87.60;;;;;;4928740;29;20180;-62
2024/02/25 16:41:20;;;;;;;1.27;1.03;;;10.10;88.10;;;;;;4932593;29;20200;-61
2024/02/25 16:43:48;;;;;;;1.67;0.93;;;10.00;88.50;;;;;;4947419;29;20191;-62
2024/02/25 16:46:13;;;;;;;0.90;0.80;;;9.80;89.00;;;;;;4939563;29;20515;-62
2024/02/25 16:48:40;;;;;;;1.10;1.00;;;9.70;89.30;;;;;;4938978;29;20876;-62
2024/02/25 16:51:05;;;;;;;1.07;1.07;;;9.70;89.50;;;;;;4940241;28;20208;-62
2024/02/25 16:53:31;;;;;;;1.17;1.07;;;9.60;90.00;;;;;;4941543;29;20425;-62
2024/02/25 16:55:56;;;;;;;1.33;1.23;;;9.50;90.00;;;;;;4939311;28;20271;-62
2024/02/25 16:58:22;;;;;;;1.10;1.00;;;9.50;90.20;;;;;;4943213;29;20266;-62
2024/02/25 17:00:47;;;;;;;1.07;0.97;;;9.50;90.70;;;;;;4930831;29;20731;-62
2024/02/25 17:03:13;;;;;;;1.23;1.13;;;9.40;90.90;;;;;;4937533;29;20175;-62
2024/02/25 17:05:38;;;;;;;3.00;1.47;;;9.30;91.20;;;;;;4949390;28;20194;-62
2024/02/25 17:08:04;;;;;;;1.90;1.10;;;9.20;91.10;;;;;;4936427;29;20179;-61
2024/02/25 17:10:30;;;;;;;1.00;0.90;;;9.00;91.50;;;;;;4943310;28;20192;-61
2024/02/25 17:12:59;;;;;;;1.13;1.03;;;8.70;92.50;;;;;;4947301;28;20928;-62
2024/02/25 17:15:26;;;;;;;1.20;1.10;;;8.50;93.50;;;;;;4946740;28;20211;-62
2024/02/25 17:17:51;;;;;;;1.00;0.90;;;8.40;94.50;;;;;;4925564;29;20482;-62
2024/02/25 17:20:17;;;;;;;0.93;0.83;;;8.30;95.00;;;;;;4936671;28;20959;-62
2024/02/25 17:22:46;;;;;;;1.63;1.53;;;8.20;95.30;;;;;;4938563;29;20183;-62
2024/02/25 17:25:11;;;;;;;1.53;1.43;;;8.20;95.90;;;;;;4938734;29;20184;-62
2024/02/25 17:27:37;;;;;;;1.77;1.27;;;8.00;96.20;;;;;;4933286;29;20428;-62
2024/02/25 17:30:04;;;;;;;1.33;1.23;;;8.00;96.10;;;;;;4937189;29;20247;-62
2024/02/25 17:32:30;;;;;;;1.23;1.13;;;7.90;96.10;;;;;;4938917;29;20183;-62
2024/02/25 17:34:55;;;;;;;0.90;0.80;;;7.80;96.30;;;;;;4949689;29;20458;-62
2024/02/25 17:37:21;;;;;;;1.10;1.00;;;7.70;96.40;;;;;;4948106;28;20175;-62
2024/02/25 17:39:47;;;;;;;4.50;1.20;;;7.60;96.50;;;;;;4939040;29;20195;-62
2024/02/25 17:42:13;;;;;;;2.90;2.80;;;7.50;96.40;;;;;;4936469;29;20214;-62
2024/02/25 17:44:39;;;;;;;2.30;2.10;;;7.50;96.50;;;;;;4941424;28;20194;-62
2024/02/25 17:47:04;;;;;;;1.33;1.23;;;7.30;96.70;;;;;;4943514;29;20430;-62
2024/02/25 17:49:30;;;;;;;1.37;1.27;;;7.20;96.60;;;;;;4947544;29;20194;-62
2024/02/25 17:51:57;;;;;;;1.20;1.10;;;7.10;96.60;;;;;;4937451;28;20699;-62
2024/02/25 17:54:23;;;;;;;1.30;1.20;;;6.90;96.80;;;;;;4931624;29;20196;-62
2024/02/25 17:56:50;;;;;;;1.23;1.13;;;6.90;97.20;;;;;;4940685;29;20431;-62